Time;durP1;ratioP1;P1;durP2;ratioP2;P2;SDS_P1;SDS_P2;PMS_P1;PMS_P2;Temp;Humidity;BMP_temperature;BMP_pressure;BME280_temperature;BME280_humidity;BME280_pressure;Samples;Min_cycle;Max_cycle;Signal;HPM_P1;HPM_P2
2022/04/02 00:01:50;;;;;;;12.40;11.10;;;-1.40;99.90;;;;;;4993420;28;20202;-66
2022/04/02 00:04:17;;;;;;;12.02;10.73;;;-1.40;99.90;;;;;;4993600;28;20202;-66
2022/04/02 00:06:44;;;;;;;12.30;11.00;;;-1.40;99.90;;;;;;4993439;28;20309;-65
2022/04/02 04:51:57;;;;;;;3.28;3.17;;;-1.30;99.90;;;;;;5026888;23;20234;-67
2022/04/02 04:54:23;;;;;;;4.57;4.28;;;-1.20;99.90;;;;;;4996728;28;20238;-67
2022/04/02 04:56:50;;;;;;;3.55;3.35;;;-1.20;99.90;;;;;;4996891;28;20597;-67
2022/04/02 04:59:17;;;;;;;3.92;3.63;;;-1.20;99.90;;;;;;4997592;28;20226;-67
2022/04/02 05:01:47;;;;;;;4.10;3.90;;;-1.20;99.90;;;;;;4996769;28;20732;-68
2022/04/02 05:04:14;;;;;;;4.05;3.85;;;-1.20;99.90;;;;;;4996893;28;20669;-67
2022/04/02 05:06:42;;;;;;;3.58;3.38;;;-1.20;99.90;;;;;;4997151;28;20207;-67
2022/04/02 05:09:10;;;;;;;3.90;3.70;;;-1.20;99.90;;;;;;4997179;28;20313;-67
2022/04/02 05:11:37;;;;;;;3.47;3.30;;;-1.20;99.90;;;;;;4997181;28;20219;-67
2022/04/02 05:14:05;;;;;;;4.00;3.80;;;-1.10;99.90;;;;;;4998259;28;20270;-67
2022/04/02 05:16:32;;;;;;;4.40;4.20;;;-1.10;99.90;;;;;;5011869;28;20230;-67
2022/04/02 05:18:59;;;;;;;3.97;3.78;;;-1.20;99.90;;;;;;5001268;28;20623;-66
2022/04/02 05:21:26;;;;;;;4.55;4.25;;;-1.20;99.90;;;;;;4998920;28;20242;-66
2022/04/02 05:23:53;;;;;;;3.50;3.30;;;-1.20;99.90;;;;;;4997978;28;20297;-66
2022/04/02 05:26:21;;;;;;;3.42;3.33;;;-1.10;99.90;;;;;;4999277;28;20313;-66
2022/04/02 05:28:48;;;;;;;3.63;3.42;;;-1.10;99.90;;;;;;4999041;28;20313;-66
2022/04/02 05:31:15;;;;;;;3.55;3.38;;;-1.10;99.90;;;;;;4996977;28;20567;-67
2022/04/02 05:33:42;;;;;;;3.85;3.65;;;-1.00;99.90;;;;;;4996698;28;20300;-67
2022/04/02 05:36:09;;;;;;;3.78;3.58;;;-1.00;99.90;;;;;;4996783;28;20234;-66
2022/04/02 05:38:36;;;;;;;3.85;3.65;;;-1.00;99.90;;;;;;4996564;28;20306;-66
2022/04/02 05:41:03;;;;;;;4.00;3.80;;;-1.00;99.90;;;;;;4996232;28;20308;-67
2022/04/02 05:43:32;;;;;;;4.07;3.88;;;-1.00;99.90;;;;;;4996174;28;20629;-68
2022/04/02 05:45:59;;;;;;;3.75;3.55;;;-0.90;99.90;;;;;;4996945;28;20202;-68
2022/04/02 05:48:25;;;;;;;4.15;3.90;;;-0.90;99.90;;;;;;4996943;28;22177;-68
2022/04/02 05:50:53;;;;;;;4.15;3.85;;;-0.80;99.90;;;;;;4996307;28;20261;-68
2022/04/02 05:53:20;;;;;;;4.60;4.30;;;-0.80;99.90;;;;;;4995995;28;20209;-68
2022/04/02 05:55:48;;;;;;;4.20;4.00;;;-0.80;99.90;;;;;;4996139;28;20217;-67
2022/04/02 05:58:15;;;;;;;4.65;4.20;;;-0.80;99.90;;;;;;4996200;28;20203;-67
2022/04/02 06:00:43;;;;;;;5.28;4.93;;;-0.80;99.90;;;;;;4996090;28;20222;-67
2022/04/02 06:03:10;;;;;;;5.25;4.85;;;-0.90;99.90;;;;;;4995907;28;20203;-66
2022/04/02 06:05:37;;;;;;;5.00;4.60;;;-0.80;99.90;;;;;;4995730;28;20662;-66
2022/04/02 06:08:05;;;;;;;5.30;4.90;;;-0.80;99.90;;;;;;4995628;28;20209;-66
2022/04/02 06:10:32;;;;;;;6.07;5.57;;;-0.80;99.90;;;;;;4996325;28;20226;-67
2022/04/02 06:12:59;;;;;;;5.53;5.07;;;-0.70;99.90;;;;;;4995840;28;20198;-66
2022/04/02 06:15:27;;;;;;;5.85;5.35;;;-0.70;99.90;;;;;;4995836;28;20289;-66
2022/04/02 06:17:55;;;;;;;5.20;4.90;;;-0.70;99.90;;;;;;4995720;28;20297;-66
2022/04/02 06:20:22;;;;;;;6.78;6.10;;;-0.80;99.90;;;;;;4995264;28;20226;-66
2022/04/02 06:22:49;;;;;;;6.03;5.50;;;-0.80;99.90;;;;;;4995365;28;20666;-66
2022/04/02 06:25:16;;;;;;;5.55;5.05;;;-0.70;99.90;;;;;;4995274;28;20241;-66
2022/04/02 06:27:44;;;;;;;6.22;5.68;;;-0.70;99.90;;;;;;4995469;28;20203;-66
2022/04/02 06:30:12;;;;;;;6.85;5.80;;;-0.70;99.90;;;;;;4995231;28;20226;-67
2022/04/02 06:32:39;;;;;;;5.10;4.70;;;-0.70;99.90;;;;;;4995280;28;20610;-67
2022/04/02 06:35:09;;;;;;;4.95;4.65;;;-0.60;99.90;;;;;;4995043;28;20670;-67
2022/04/02 06:37:38;;;;;;;4.90;4.60;;;-0.60;99.90;;;;;;4995342;28;20209;-67
2022/04/02 06:40:06;;;;;;;5.72;5.30;;;-0.50;99.90;;;;;;4994860;28;20571;-67
2022/04/02 06:42:34;;;;;;;6.57;5.97;;;-0.40;99.90;;;;;;4994878;28;20573;-67
2022/04/02 06:45:01;;;;;;;6.95;6.35;;;-0.40;99.90;;;;;;4995384;28;20206;-67
2022/04/02 06:47:29;;;;;;;7.40;6.45;;;-0.40;99.90;;;;;;4995606;28;20257;-67
2022/04/02 06:49:57;;;;;;;6.93;6.25;;;-0.30;99.90;;;;;;4994588;28;20838;-67
2022/04/02 06:52:27;;;;;;;12.13;7.90;;;-0.40;99.90;;;;;;4993774;28;20577;-67
2022/04/02 06:54:54;;;;;;;10.25;7.18;;;-0.40;99.90;;;;;;4994734;28;20653;-67
2022/04/02 06:57:21;;;;;;;6.22;5.47;;;-0.30;99.90;;;;;;4994598;28;20229;-67
2022/04/02 06:59:48;;;;;;;6.45;5.72;;;-0.40;99.90;;;;;;4994675;28;20209;-67
2022/04/02 07:02:16;;;;;;;5.10;4.60;;;-0.30;99.90;;;;;;4994792;28;20215;-67
2022/04/02 07:04:44;;;;;;;4.95;4.47;;;-0.30;99.90;;;;;;4994948;28;20199;-67
2022/04/02 07:07:10;;;;;;;5.50;5.10;;;-0.30;99.90;;;;;;4994834;28;20198;-67
2022/04/02 07:09:39;;;;;;;4.57;4.32;;;-0.30;99.90;;;;;;4994515;28;20702;-67
2022/04/02 07:12:07;;;;;;;4.93;4.57;;;-0.20;99.90;;;;;;4995090;28;20204;-67
2022/04/02 07:14:35;;;;;;;4.20;4.00;;;-0.10;99.90;;;;;;4994806;28;20210;-67
2022/04/02 07:17:01;;;;;;;4.43;4.13;;;-0.10;99.90;;;;;;4994817;28;20233;-67
2022/04/02 07:19:31;;;;;;;4.10;3.85;;;0.00;99.90;;;;;;4994511;28;20234;-67
2022/04/02 07:21:58;;;;;;;4.65;4.35;;;0.10;99.90;;;;;;4994490;28;20261;-67
2022/04/02 07:24:25;;;;;;;4.60;4.20;;;0.10;99.90;;;;;;4994443;28;20241;-67
2022/04/02 07:26:56;;;;;;;4.30;4.00;;;0.20;99.90;;;;;;4994347;28;20234;-68
2022/04/02 07:29:26;;;;;;;4.65;4.35;;;0.20;99.90;;;;;;4993977;28;20206;-68
2022/04/02 07:31:53;;;;;;;4.13;3.83;;;0.30;99.90;;;;;;4994858;28;20226;-67
2022/04/02 07:34:20;;;;;;;4.07;3.88;;;0.40;99.90;;;;;;4993647;28;20653;-67
2022/04/02 07:36:56;;;;;;;7.10;4.15;;;0.40;99.90;;;;;;4993837;28;20249;-68
2022/04/02 07:39:31;;;;;;;3.60;3.35;;;0.50;99.90;;;;;;4994353;28;20187;-68
2022/04/02 07:42:07;;;;;;;3.83;3.53;;;0.50;99.90;;;;;;4994208;28;20218;-69
2022/04/02 07:44:47;;;;;;;3.53;3.33;;;0.70;99.90;;;;;;4994479;28;20187;-68
2022/04/02 07:47:15;;;;;;;3.58;3.47;;;0.90;99.90;;;;;;4994333;28;20277;-68
2022/04/02 07:49:47;;;;;;;5.15;3.75;;;1.20;99.90;;;;;;4993848;28;20233;-67
2022/04/02 07:52:15;;;;;;;3.78;3.58;;;1.30;99.90;;;;;;4993725;28;20585;-67
2022/04/02 07:54:43;;;;;;;3.88;3.63;;;1.40;99.90;;;;;;4993845;28;20199;-67
2022/04/02 07:57:15;;;;;;;3.33;3.13;;;1.40;99.90;;;;;;4993923;28;20572;-67
2022/04/02 07:59:44;;;;;;;3.10;3.00;;;1.30;99.90;;;;;;4993851;28;20187;-67
2022/04/02 08:04:54;;;;;;;3.30;3.05;;;1.00;99.90;;;;;;4993272;28;20198;-69
2022/04/02 08:07:22;;;;;;;3.33;3.15;;;0.90;99.90;;;;;;4993509;28;20213;-68
2022/04/02 08:09:52;;;;;;;3.60;3.40;;;0.80;99.90;;;;;;4996044;28;20234;-67
2022/04/02 08:12:22;;;;;;;4.18;3.90;;;0.80;99.90;;;;;;4999850;28;20195;-66
2022/04/02 08:14:50;;;;;;;3.35;3.15;;;0.80;99.90;;;;;;4997779;28;20206;-67
2022/04/02 08:17:19;;;;;;;2.65;2.55;;;0.70;99.90;;;;;;4998232;28;20209;-66
2022/04/02 08:19:49;;;;;;;2.60;2.50;;;0.50;99.90;;;;;;4997582;28;20199;-67
2022/04/02 08:22:16;;;;;;;2.80;2.60;;;0.50;99.90;;;;;;4998257;28;20618;-68
2022/04/02 08:24:43;;;;;;;3.35;3.15;;;0.40;99.90;;;;;;4997505;28;20262;-68
2022/04/02 08:27:18;;;;;;;2.55;2.45;;;0.30;99.90;;;;;;4996975;28;20230;-68
2022/04/02 08:30:00;;;;;;;3.05;2.85;;;0.30;99.90;;;;;;4997688;28;20260;-69
2022/04/02 08:32:50;;;;;;;3.25;2.70;;;0.30;99.90;;;;;;4995582;28;20198;-68
2022/04/02 08:35:25;;;;;;;2.50;2.40;;;0.30;99.90;;;;;;4996275;28;20242;-67
2022/04/02 08:38:15;;;;;;;2.75;2.65;;;0.40;99.90;;;;;;4997835;28;20202;-67
2022/04/02 08:41:14;;;;;;;3.63;3.42;;;0.60;99.90;;;;;;4998020;28;20218;-67
2022/04/02 08:44:17;;;;;;;3.22;3.00;;;0.80;99.90;;;;;;4997029;28;20225;-68
2022/04/02 08:47:11;;;;;;;3.35;3.17;;;0.90;99.90;;;;;;4998299;28;20205;-67
2022/04/02 08:49:42;;;;;;;3.28;2.63;;;0.90;99.90;;;;;;4995666;28;20223;-68
2022/04/02 08:52:22;;;;;;;3.40;3.20;;;1.10;99.90;;;;;;4998160;28;20313;-68
2022/04/02 08:55:08;;;;;;;5.18;3.50;;;1.40;99.90;;;;;;4999150;28;20570;-68
2022/04/02 08:58:05;;;;;;;3.30;3.20;;;1.40;99.90;;;;;;5000787;28;20187;-68
2022/04/02 09:00:42;;;;;;;3.58;3.38;;;1.40;99.90;;;;;;4998983;28;20215;-68
2022/04/02 09:03:51;;;;;;;3.40;3.20;;;1.70;99.90;;;;;;4999118;28;20182;-70
2022/04/02 09:06:49;;;;;;;3.35;3.15;;;1.80;99.90;;;;;;4998397;28;20183;-70
2022/04/02 09:09:30;;;;;;;2.83;2.72;;;1.80;99.90;;;;;;4992628;28;20213;-70
2022/04/02 09:12:43;;;;;;;3.00;2.80;;;1.90;99.90;;;;;;4994259;28;20579;-69
2022/04/02 09:15:13;;;;;;;2.60;2.50;;;1.70;99.90;;;;;;4993180;28;20210;-69
2022/04/02 09:17:50;;;;;;;3.72;3.47;;;1.70;99.90;;;;;;4996455;28;20210;-70
2022/04/02 09:20:39;;;;;;;2.75;2.65;;;1.70;99.90;;;;;;4996264;28;20693;-69
2022/04/02 09:23:15;;;;;;;2.83;2.72;;;1.50;99.90;;;;;;4996663;28;20190;-69
2022/04/02 09:26:32;;;;;;;2.35;2.25;;;1.40;99.90;;;;;;4997492;28;20248;-69
2022/04/02 09:29:17;;;;;;;2.50;2.40;;;1.40;99.90;;;;;;4937258;29;20215;-69
2022/04/02 09:32:20;;;;;;;2.50;2.40;;;1.50;99.90;;;;;;4936257;29;20224;-69
2022/04/02 09:35:33;;;;;;;2.50;2.40;;;1.60;99.90;;;;;;4984630;28;20245;-69
2022/04/02 09:38:25;;;;;;;1.98;1.98;;;1.70;99.90;;;;;;4962145;28;20678;-69
2022/04/02 09:40:59;;;;;;;2.20;2.10;;;1.70;99.90;;;;;;4996732;28;20218;-69
2022/04/02 09:43:28;;;;;;;1.95;1.95;;;1.80;99.90;;;;;;4996227;28;20205;-69
2022/04/02 09:46:25;;;;;;;2.38;2.17;;;1.60;99.90;;;;;;4996469;28;20191;-69
2022/04/02 09:49:00;;;;;;;1.95;1.95;;;1.60;99.90;;;;;;4996401;28;20199;-70
2022/04/02 09:51:32;;;;;;;2.08;1.98;;;1.60;99.90;;;;;;4996435;28;20237;-69
2022/04/02 09:54:04;;;;;;;2.50;2.30;;;1.40;99.90;;;;;;4996248;28;20183;-69
2022/04/02 09:56:40;;;;;;;2.03;2.00;;;1.30;99.90;;;;;;4996247;28;20191;-69
2022/04/02 09:59:12;;;;;;;2.47;2.38;;;1.20;99.90;;;;;;4996199;28;20198;-69
2022/04/02 10:01:43;;;;;;;2.30;2.20;;;1.20;99.90;;;;;;4996026;28;20227;-69
2022/04/02 10:04:31;;;;;;;2.10;2.00;;;1.30;99.90;;;;;;4995974;28;20199;-69
2022/04/02 10:06:59;;;;;;;2.22;2.05;;;1.40;99.90;;;;;;4995997;28;20187;-69
2022/04/02 10:09:31;;;;;;;2.42;2.33;;;1.60;99.90;;;;;;4996174;28;20198;-69
2022/04/02 10:12:01;;;;;;;2.55;2.45;;;1.70;99.90;;;;;;4996227;28;20227;-70
2022/04/02 10:14:30;;;;;;;2.25;2.15;;;1.70;99.90;;;;;;4996023;28;20191;-70
2022/04/02 10:16:58;;;;;;;2.42;2.33;;;1.70;99.90;;;;;;4995892;28;20337;-69
2022/04/02 10:19:29;;;;;;;2.00;1.90;;;1.90;99.90;;;;;;4996027;28;20283;-69
2022/04/02 10:21:58;;;;;;;2.20;2.10;;;2.00;99.90;;;;;;4996202;28;20694;-69
2022/04/02 10:24:26;;;;;;;2.05;1.95;;;2.20;99.90;;;;;;4995819;28;20555;-70
2022/04/02 10:26:55;;;;;;;1.90;1.90;;;2.00;99.90;;;;;;4995520;28;20684;-70
2022/04/02 10:29:54;;;;;;;2.20;2.10;;;1.90;99.90;;;;;;4995422;28;20298;-69
2022/04/02 10:32:54;;;;;;;2.03;2.03;;;1.90;99.90;;;;;;4969889;28;20666;-71
2022/04/02 10:35:22;;;;;;;2.45;2.35;;;2.00;99.90;;;;;;4995789;28;20233;-71
2022/04/02 10:38:06;;;;;;;1.92;1.83;;;2.00;99.90;;;;;;4995027;28;20289;-70
2022/04/02 10:40:37;;;;;;;2.05;2.05;;;2.10;99.90;;;;;;4995222;28;20219;-70
2022/04/02 10:43:06;;;;;;;2.33;2.22;;;2.00;99.90;;;;;;4996684;28;20277;-69
2022/04/02 10:45:37;;;;;;;2.30;2.20;;;2.00;99.90;;;;;;4995528;28;20206;-69
2022/04/02 10:48:10;;;;;;;3.13;2.92;;;2.20;99.90;;;;;;4995412;28;20194;-69
2022/04/02 10:50:38;;;;;;;3.03;2.83;;;2.30;99.90;;;;;;4994885;28;20230;-70
2022/04/02 10:53:06;;;;;;;2.22;2.13;;;2.40;99.90;;;;;;4994827;28;20213;-70
2022/04/02 10:55:34;;;;;;;2.53;2.42;;;2.40;99.90;;;;;;4995347;28;20309;-70
2022/04/02 10:58:02;;;;;;;2.35;2.25;;;2.40;99.90;;;;;;4994887;28;20207;-70
2022/04/02 11:00:30;;;;;;;2.33;2.20;;;2.50;99.90;;;;;;4994902;28;20248;-70
2022/04/02 11:03:03;;;;;;;2.20;2.10;;;2.60;99.90;;;;;;4995155;28;20202;-70
2022/04/02 11:05:35;;;;;;;2.13;2.10;;;2.50;99.90;;;;;;4995005;28;20191;-70
2022/04/02 11:08:05;;;;;;;2.13;2.13;;;2.50;99.90;;;;;;4995201;28;20189;-70
2022/04/02 11:10:35;;;;;;;2.05;2.05;;;2.40;99.90;;;;;;4994912;28;20697;-70
2022/04/02 11:13:04;;;;;;;1.88;1.80;;;2.40;99.90;;;;;;4994311;28;20198;-70
2022/04/02 11:15:39;;;;;;;2.08;2.08;;;2.30;99.90;;;;;;4994673;28;20257;-70
2022/04/02 11:18:17;;;;;;;2.33;2.22;;;2.30;99.90;;;;;;4994575;28;20187;-70
2022/04/02 11:20:45;;;;;;;2.28;1.98;;;2.20;99.90;;;;;;4994305;28;20648;-69
2022/04/02 11:23:19;;;;;;;2.05;1.95;;;2.20;99.90;;;;;;4994380;28;20569;-69
2022/04/02 11:25:49;;;;;;;2.05;2.05;;;2.20;99.90;;;;;;4994601;28;20680;-69
2022/04/02 11:28:17;;;;;;;2.00;2.00;;;2.20;99.90;;;;;;4994576;28;20183;-69
2022/04/02 11:30:46;;;;;;;1.70;1.70;;;2.20;99.90;;;;;;4994302;28;20321;-69
2022/04/02 11:33:16;;;;;;;2.38;2.28;;;2.20;99.90;;;;;;4994300;28;20205;-70
2022/04/02 11:35:48;;;;;;;2.45;2.30;;;2.20;99.90;;;;;;4993895;28;20666;-70
2022/04/02 11:38:34;;;;;;;2.03;1.92;;;2.10;99.90;;;;;;5008033;28;20187;-70
2022/04/02 11:41:07;;;;;;;2.30;2.20;;;2.10;99.90;;;;;;5012336;28;20233;-70
2022/04/02 11:43:36;;;;;;;1.70;1.70;;;2.20;99.90;;;;;;5000119;28;20281;-70
2022/04/02 11:46:05;;;;;;;1.80;1.80;;;2.00;99.90;;;;;;4994467;28;20610;-70
2022/04/02 11:48:35;;;;;;;2.38;2.28;;;2.10;99.90;;;;;;4994556;28;20206;-70
2022/04/02 11:51:16;;;;;;;3.17;2.97;;;2.00;99.90;;;;;;4994623;28;20226;-70
2022/04/02 11:53:44;;;;;;;2.70;2.60;;;1.80;99.90;;;;;;4994284;28;20194;-70
2022/04/02 11:56:29;;;;;;;2.10;2.10;;;1.60;99.90;;;;;;4994051;28;20199;-70
2022/04/02 11:58:57;;;;;;;2.17;2.08;;;1.70;99.90;;;;;;4994298;28;20294;-70
2022/04/02 12:01:24;;;;;;;2.30;2.20;;;1.70;99.90;;;;;;4993650;28;20631;-71
2022/04/02 12:04:07;;;;;;;2.05;2.05;;;1.80;99.90;;;;;;4993897;28;20199;-69
2022/04/02 15:18:22;;;;;;;4.10;3.90;;;0.40;99.90;;;;;;5590031;23;20302;-66
2022/04/02 15:21:05;;;;;;;3.70;3.50;;;0.20;99.90;;;;;;4997335;28;20186;-67
2022/04/02 15:23:32;;;;;;;3.70;3.50;;;0.20;99.90;;;;;;4994697;28;20225;-68
2022/04/02 15:26:15;;;;;;;3.78;3.58;;;0.20;99.90;;;;;;4994345;28;20290;-71
2022/04/02 15:28:42;;;;;;;4.05;3.85;;;0.20;99.90;;;;;;4994484;28;20313;-69
2022/04/02 15:31:10;;;;;;;4.28;4.07;;;0.20;99.90;;;;;;4994233;28;20581;-68
2022/04/02 15:33:41;;;;;;;4.45;4.10;;;0.20;99.90;;;;;;4994661;28;20305;-68
2022/04/02 15:36:10;;;;;;;4.38;4.18;;;0.20;99.90;;;;;;4994672;28;20198;-68
2022/04/02 15:38:51;;;;;;;4.53;4.22;;;0.30;99.90;;;;;;4995287;28;20656;-68
2022/04/02 15:41:18;;;;;;;4.80;4.40;;;0.30;99.90;;;;;;4994899;28;20194;-68
2022/04/02 15:43:46;;;;;;;4.07;3.88;;;0.20;99.90;;;;;;4993714;28;20201;-68
2022/04/02 15:46:32;;;;;;;4.78;4.38;;;0.20;99.90;;;;;;4993502;28;20297;-68
2022/04/02 15:49:33;;;;;;;5.70;4.65;;;0.10;99.90;;;;;;4993934;28;20230;-68
2022/04/02 15:52:20;;;;;;;4.10;3.72;;;0.10;99.90;;;;;;4994592;28;20210;-68
2022/04/02 15:55:00;;;;;;;4.35;4.05;;;0.10;99.90;;;;;;4994063;28;20191;-68
2022/04/02 15:57:29;;;;;;;4.50;4.20;;;0.10;99.90;;;;;;4993907;28;20314;-68
2022/04/02 16:00:25;;;;;;;4.13;3.83;;;0.00;99.90;;;;;;4994021;28;20549;-67
2022/04/02 16:02:52;;;;;;;4.45;4.15;;;0.00;99.90;;;;;;4993924;28;20251;-67
2022/04/02 16:05:23;;;;;;;5.38;4.97;;;0.00;99.90;;;;;;4994017;28;20290;-68
2022/04/02 16:08:12;;;;;;;6.95;6.25;;;0.00;99.90;;;;;;4994014;28;20571;-66
2022/04/02 16:10:45;;;;;;;5.93;5.43;;;-0.10;99.90;;;;;;4993754;28;20194;-66
2022/04/02 16:13:27;;;;;;;5.55;5.15;;;-0.10;99.90;;;;;;4993879;28;20278;-66
2022/04/02 16:16:07;;;;;;;5.18;4.88;;;-0.20;99.90;;;;;;4993832;28;20212;-66
2022/04/02 16:18:37;;;;;;;5.07;4.68;;;-0.20;99.90;;;;;;4993476;28;20227;-66
2022/04/02 16:21:24;;;;;;;5.07;4.78;;;-0.20;99.90;;;;;;4993903;28;20218;-66
2022/04/02 16:23:53;;;;;;;4.18;3.90;;;-0.30;99.90;;;;;;4993399;28;20289;-66
2022/04/02 16:26:20;;;;;;;4.93;4.43;;;-0.40;99.90;;;;;;4997679;28;20194;-67
2022/04/02 16:28:48;;;;;;;4.35;4.05;;;-0.30;99.90;;;;;;4997406;28;20227;-66
2022/04/02 16:31:17;;;;;;;4.45;4.25;;;-0.40;99.90;;;;;;4997582;28;20284;-66
2022/04/02 16:33:46;;;;;;;5.03;4.80;;;-0.40;99.90;;;;;;4997261;28;20685;-67
2022/04/02 16:36:22;;;;;;;4.97;4.63;;;-0.40;99.90;;;;;;4997633;28;20202;-67
2022/04/02 16:38:52;;;;;;;4.32;4.03;;;-0.40;99.90;;;;;;4997393;28;20226;-67
2022/04/02 16:41:29;;;;;;;4.70;4.40;;;-0.40;99.90;;;;;;4997477;28;20198;-67
2022/04/02 16:44:29;;;;;;;5.70;5.30;;;-0.40;99.90;;;;;;4997584;28;20197;-68
2022/04/02 16:47:01;;;;;;;5.90;5.50;;;-0.50;99.90;;;;;;4997594;28;20234;-68
2022/04/02 16:49:28;;;;;;;4.80;4.50;;;-0.50;99.90;;;;;;4997353;28;20286;-68
2022/04/02 16:52:05;;;;;;;4.65;4.32;;;-0.50;99.90;;;;;;4997380;28;20227;-68
2022/04/02 16:54:32;;;;;;;4.95;4.65;;;-0.50;99.90;;;;;;4997262;28;20194;-67
2022/04/02 16:56:59;;;;;;;4.70;4.40;;;-0.60;99.90;;;;;;4997183;28;20202;-68
2022/04/02 16:59:34;;;;;;;6.03;5.13;;;-0.50;99.90;;;;;;4997305;28;20223;-67
2022/04/02 17:02:00;;;;;;;5.53;5.03;;;-0.50;99.90;;;;;;4997258;28;20182;-68
2022/04/02 17:04:27;;;;;;;5.63;5.13;;;-0.50;99.90;;;;;;4996944;28;20232;-68
2022/04/02 17:07:07;;;;;;;5.18;4.85;;;-0.60;99.90;;;;;;4996806;28;20206;-68
2022/04/02 17:09:34;;;;;;;5.93;5.40;;;-0.60;99.90;;;;;;4997136;28;20214;-69
2022/04/02 17:12:01;;;;;;;5.65;5.25;;;-0.60;99.90;;;;;;4996817;28;20748;-68
2022/04/02 17:14:30;;;;;;;6.97;5.60;;;-0.70;99.90;;;;;;4996816;28;20285;-69
2022/04/02 17:16:57;;;;;;;5.85;5.35;;;-0.80;99.90;;;;;;4997527;28;20202;-68
2022/04/02 17:19:37;;;;;;;5.25;4.90;;;-0.80;99.90;;;;;;4996783;28;20233;-68
2022/04/02 17:22:08;;;;;;;6.38;5.85;;;-0.80;99.90;;;;;;4996954;28;20270;-68
2022/04/02 17:24:35;;;;;;;5.22;4.85;;;-0.90;99.90;;;;;;4996933;28;20193;-68
2022/04/02 17:27:16;;;;;;;5.40;5.03;;;-1.00;99.90;;;;;;4996888;28;20214;-69
2022/04/02 17:29:45;;;;;;;5.85;5.25;;;-1.00;99.90;;;;;;4996886;28;20187;-69
2022/04/02 17:32:13;;;;;;;5.78;5.28;;;-1.00;99.90;;;;;;4996511;28;20218;-69
2022/04/02 17:34:56;;;;;;;5.68;5.18;;;-1.10;99.90;;;;;;4997054;28;20209;-69
2022/04/02 17:37:33;;;;;;;5.63;5.00;;;-1.10;99.90;;;;;;5008283;28;20303;-69
2022/04/02 17:40:04;;;;;;;5.25;4.90;;;-1.10;99.90;;;;;;5000324;28;20183;-68
2022/04/02 17:42:36;;;;;;;5.95;5.45;;;-1.10;99.90;;;;;;4997424;28;20210;-69
2022/04/02 17:45:26;;;;;;;5.93;5.45;;;-1.20;99.90;;;;;;4997133;28;20289;-67
2022/04/02 17:47:54;;;;;;;6.75;6.18;;;-1.20;99.90;;;;;;4996879;28;20229;-69
2022/04/02 17:50:26;;;;;;;6.63;6.03;;;-1.20;99.90;;;;;;4996169;28;20213;-69
2022/04/02 17:52:57;;;;;;;6.03;5.63;;;-1.20;99.90;;;;;;4996441;28;20245;-69
2022/04/02 17:55:27;;;;;;;6.43;5.90;;;-1.30;99.90;;;;;;4996420;28;20257;-69
2022/04/02 17:58:08;;;;;;;6.38;5.88;;;-1.30;99.90;;;;;;4996387;28;20226;-68
2022/04/02 18:00:36;;;;;;;5.93;5.45;;;-1.30;99.90;;;;;;4995902;28;20638;-68
2022/04/02 18:03:03;;;;;;;5.63;5.20;;;-1.30;99.90;;;;;;4996450;28;20327;-69
2022/04/02 18:05:31;;;;;;;5.65;5.18;;;-1.30;99.90;;;;;;4996183;28;20206;-69
2022/04/02 18:08:01;;;;;;;6.20;5.60;;;-1.30;99.90;;;;;;4995663;28;20728;-68
2022/04/02 18:10:29;;;;;;;6.53;5.50;;;-1.30;99.90;;;;;;4996371;28;20203;-68
2022/04/02 18:12:56;;;;;;;6.60;6.00;;;-1.40;99.90;;;;;;4995818;28;20228;-69
2022/04/02 18:15:24;;;;;;;6.82;6.22;;;-1.40;99.90;;;;;;4996116;28;20274;-68
2022/04/02 18:17:51;;;;;;;6.53;6.00;;;-1.40;99.90;;;;;;4995871;28;20223;-68
2022/04/02 18:20:18;;;;;;;6.68;6.07;;;-1.40;99.90;;;;;;4996085;28;20305;-70
2022/04/02 18:22:45;;;;;;;5.45;4.95;;;-1.50;99.90;;;;;;4995988;28;20198;-69
2022/04/02 18:25:14;;;;;;;5.70;5.30;;;-1.50;99.90;;;;;;4995608;28;20646;-69
2022/04/02 18:27:41;;;;;;;6.20;5.63;;;-1.40;99.90;;;;;;4995640;28;20218;-69
2022/04/02 18:30:11;;;;;;;6.38;5.78;;;-1.50;99.90;;;;;;4995643;28;20293;-69
2022/04/02 18:32:38;;;;;;;5.78;5.38;;;-1.40;99.90;;;;;;4996166;28;20226;-71
2022/04/02 18:35:06;;;;;;;5.60;5.10;;;-1.40;99.90;;;;;;4995791;28;20293;-69
2022/04/02 18:37:33;;;;;;;6.22;5.72;;;-1.40;99.90;;;;;;4995392;28;20261;-70
2022/04/02 18:40:00;;;;;;;6.10;5.63;;;-1.40;99.90;;;;;;4995513;28;20206;-69
2022/04/02 18:42:29;;;;;;;5.93;5.38;;;-1.40;99.90;;;;;;4995286;28;20209;-69
2022/04/02 18:44:57;;;;;;;6.38;5.82;;;-1.50;99.90;;;;;;4995464;28;20221;-70
2022/04/02 18:47:24;;;;;;;6.25;5.75;;;-1.50;99.90;;;;;;4995350;28;20233;-69
2022/04/02 18:49:51;;;;;;;8.35;7.10;;;-1.50;99.90;;;;;;4995330;28;20209;-68
2022/04/02 18:52:18;;;;;;;8.57;6.90;;;-1.50;99.90;;;;;;4995356;28;20222;-68
2022/04/02 18:54:45;;;;;;;9.45;7.40;;;-1.50;99.90;;;;;;4994984;28;20662;-69
2022/04/02 18:57:12;;;;;;;9.88;7.43;;;-1.50;99.90;;;;;;4994995;28;20614;-67
2022/04/02 18:59:40;;;;;;;7.93;7.13;;;-1.50;99.90;;;;;;4995046;28;20289;-68
2022/04/02 19:02:07;;;;;;;7.80;6.93;;;-1.50;99.90;;;;;;4994670;28;20203;-68
2022/04/02 19:04:33;;;;;;;8.35;7.45;;;-1.50;99.90;;;;;;4994642;28;20297;-68
2022/04/02 19:07:00;;;;;;;7.50;6.80;;;-1.60;99.90;;;;;;4995374;28;20294;-68
2022/04/02 19:09:28;;;;;;;8.82;7.18;;;-1.60;99.90;;;;;;4998907;28;20234;-68
2022/04/02 19:11:55;;;;;;;7.93;7.13;;;-1.60;99.90;;;;;;4997754;28;20219;-67
2022/04/02 19:14:22;;;;;;;8.35;7.55;;;-1.60;99.90;;;;;;4995638;28;20199;-67
2022/04/02 19:16:50;;;;;;;7.55;6.82;;;-1.60;99.90;;;;;;4994983;28;20234;-68
2022/04/02 19:19:17;;;;;;;7.32;6.65;;;-1.60;99.90;;;;;;4994283;28;20334;-68
2022/04/02 19:21:43;;;;;;;7.70;7.00;;;-1.60;99.90;;;;;;4994280;28;20290;-67
2022/04/02 19:24:10;;;;;;;7.25;6.57;;;-1.60;99.90;;;;;;4994641;28;20315;-67
2022/04/02 19:26:37;;;;;;;7.38;6.68;;;-1.60;99.90;;;;;;4995129;28;20202;-68
2022/04/02 19:29:05;;;;;;;6.95;6.35;;;-1.70;99.90;;;;;;4994530;28;20322;-69
2022/04/02 19:31:32;;;;;;;7.43;6.80;;;-1.60;99.90;;;;;;4994434;28;20198;-68
2022/04/02 19:34:01;;;;;;;7.72;7.10;;;-1.60;99.90;;;;;;4994727;28;20202;-68
2022/04/02 19:36:28;;;;;;;7.07;6.47;;;-1.60;99.90;;;;;;4994428;28;20297;-68
2022/04/02 19:38:57;;;;;;;7.78;7.03;;;-1.60;99.90;;;;;;4994399;28;20228;-68
2022/04/02 19:41:24;;;;;;;8.65;7.47;;;-1.60;99.90;;;;;;4994533;28;20301;-67
2022/04/02 19:43:56;;;;;;;7.35;6.65;;;-1.70;99.90;;;;;;4994492;28;20198;-69
2022/04/02 19:46:23;;;;;;;8.98;7.60;;;-1.70;99.90;;;;;;4994222;28;20190;-69
2022/04/02 19:48:50;;;;;;;7.22;6.60;;;-1.60;99.90;;;;;;4994481;28;20223;-68
2022/04/02 19:51:18;;;;;;;7.47;6.55;;;-1.70;99.90;;;;;;4994117;28;20202;-68
2022/04/02 19:53:45;;;;;;;7.60;6.90;;;-1.70;99.90;;;;;;4994074;28;20701;-68
2022/04/02 19:56:13;;;;;;;7.35;6.65;;;-1.70;99.90;;;;;;4994402;28;20206;-70
2022/04/02 19:58:39;;;;;;;7.93;7.07;;;-1.70;99.90;;;;;;4995243;28;20226;-68
2022/04/02 20:01:07;;;;;;;7.63;6.93;;;-1.70;99.90;;;;;;4994149;28;20203;-68
2022/04/02 20:03:34;;;;;;;7.65;6.88;;;-1.70;99.90;;;;;;4994170;28;20571;-69
2022/04/02 20:06:01;;;;;;;8.75;7.53;;;-1.80;99.90;;;;;;4994272;28;20198;-68
2022/04/02 20:08:30;;;;;;;7.40;6.80;;;-1.80;99.90;;;;;;4993899;28;20724;-67
2022/04/02 20:10:57;;;;;;;9.15;7.28;;;-1.90;99.90;;;;;;4994492;28;20306;-68
2022/04/02 20:13:24;;;;;;;6.93;6.25;;;-1.90;99.90;;;;;;4994127;28;20219;-66
2022/04/02 20:15:52;;;;;;;7.15;6.45;;;-1.90;99.90;;;;;;4993913;28;20210;-67
2022/04/02 20:18:19;;;;;;;7.50;6.80;;;-1.90;99.90;;;;;;4994814;28;20228;-69
2022/04/02 20:20:46;;;;;;;7.97;7.10;;;-1.90;99.90;;;;;;4993801;28;20202;-68
2022/04/02 20:23:13;;;;;;;7.30;6.68;;;-2.00;99.90;;;;;;4994403;28;20201;-69
2022/04/02 20:25:42;;;;;;;7.72;6.95;;;-2.00;99.90;;;;;;4994304;28;20570;-69
2022/04/02 20:28:09;;;;;;;6.97;6.38;;;-2.00;99.90;;;;;;4994213;28;20222;-68
2022/04/02 20:30:38;;;;;;;7.07;6.47;;;-2.00;99.90;;;;;;4994074;28;20213;-67
2022/04/02 20:33:05;;;;;;;7.50;6.72;;;-2.00;99.90;;;;;;4993873;28;20225;-66
2022/04/02 20:35:33;;;;;;;9.38;7.55;;;-2.00;99.90;;;;;;4993615;28;20734;-66
2022/04/02 20:37:59;;;;;;;7.70;6.90;;;-2.10;99.90;;;;;;4993796;28;20227;-67
2022/04/02 20:40:27;;;;;;;7.78;6.97;;;-2.00;99.90;;;;;;4993970;28;20298;-67
2022/04/02 20:42:55;;;;;;;7.00;6.40;;;-2.10;99.90;;;;;;4993802;28;20225;-67
2022/04/02 20:45:22;;;;;;;6.90;6.20;;;-2.10;99.90;;;;;;4993979;28;20202;-68
2022/04/02 20:47:49;;;;;;;6.43;5.93;;;-2.10;99.90;;;;;;4994439;28;20219;-69
2022/04/02 20:50:17;;;;;;;5.53;5.10;;;-2.10;99.90;;;;;;4994239;28;20238;-69
2022/04/02 20:52:45;;;;;;;6.20;5.70;;;-2.10;99.90;;;;;;4993711;28;20221;-67
2022/04/02 20:55:13;;;;;;;5.60;5.10;;;-2.10;99.90;;;;;;4993803;28;20203;-68
2022/04/02 20:57:40;;;;;;;6.45;5.85;;;-2.00;99.90;;;;;;4993929;28;20233;-68
2022/04/02 21:00:10;;;;;;;6.15;5.65;;;-2.00;99.90;;;;;;4993925;28;20293;-69
2022/04/02 21:02:38;;;;;;;5.57;5.18;;;-2.00;99.90;;;;;;4994072;28;20205;-70
2022/04/02 21:05:06;;;;;;;5.85;5.43;;;-1.90;99.90;;;;;;4993866;28;20213;-68
2022/04/02 21:07:33;;;;;;;5.20;4.80;;;-1.80;99.90;;;;;;4993868;28;20227;-66
2022/04/02 21:09:59;;;;;;;5.60;5.15;;;-1.80;99.90;;;;;;4993583;28;20328;-66
2022/04/02 21:12:26;;;;;;;5.50;5.10;;;-1.80;99.90;;;;;;4995665;28;20219;-67